sensor_id;sensor_type;location;lat;lon;timestamp;P1;durP1;ratioP1;P2;durP2;ratioP2
26690;SDS011;14307;51.718;8.938;2023-02-15T00:01:47;151.90;;;61.50;;
26690;SDS011;14307;51.718;8.938;2023-02-15T00:04:16;114.63;;;45.65;;
26690;SDS011;14307;51.718;8.938;2023-02-15T00:06:44;83.43;;;38.50;;
26690;SDS011;14307;51.718;8.938;2023-02-15T00:09:11;71.95;;;35.35;;
26690;SDS011;14307;51.718;8.938;2023-02-15T00:11:38;71.03;;;35.95;;
26690;SDS011;14307;51.718;8.938;2023-02-15T00:14:10;74.53;;;35.80;;
26690;SDS011;14307;51.718;8.938;2023-02-15T00:19:09;89.85;;;41.85;;
26690;SDS011;14307;51.718;8.938;2023-02-15T00:21:37;87.15;;;40.38;;
26690;SDS011;14307;51.718;8.938;2023-02-15T00:24:05;82.95;;;38.92;;
26690;SDS011;14307;51.718;8.938;2023-02-15T00:26:34;78.03;;;38.28;;
26690;SDS011;14307;51.718;8.938;2023-02-15T00:29:02;75.75;;;34.92;;
26690;SDS011;14307;51.718;8.938;2023-02-15T00:31:29;72.55;;;33.55;;
26690;SDS011;14307;51.718;8.938;2023-02-15T00:34:04;73.72;;;33.15;;
26690;SDS011;14307;51.718;8.938;2023-02-15T00:36:32;75.22;;;33.58;;
26690;SDS011;14307;51.718;8.938;2023-02-15T00:38:58;69.47;;;33.33;;
26690;SDS011;14307;51.718;8.938;2023-02-15T00:41:25;73.88;;;32.35;;
26690;SDS011;14307;51.718;8.938;2023-02-15T00:43:52;66.95;;;30.20;;
26690;SDS011;14307;51.718;8.938;2023-02-15T00:46:19;75.13;;;34.63;;
26690;SDS011;14307;51.718;8.938;2023-02-15T00:48:45;78.20;;;33.72;;
26690;SDS011;14307;51.718;8.938;2023-02-15T00:51:12;72.15;;;34.33;;
26690;SDS011;14307;51.718;8.938;2023-02-15T00:53:39;72.95;;;32.60;;
26690;SDS011;14307;51.718;8.938;2023-02-15T00:56:06;75.82;;;33.55;;
26690;SDS011;14307;51.718;8.938;2023-02-15T00:58:33;60.47;;;30.98;;
26690;SDS011;14307;51.718;8.938;2023-02-15T01:01:04;70.95;;;33.70;;
26690;SDS011;14307;51.718;8.938;2023-02-15T01:03:33;71.63;;;32.25;;
26690;SDS011;14307;51.718;8.938;2023-02-15T01:06:01;70.47;;;33.78;;
26690;SDS011;14307;51.718;8.938;2023-02-15T01:08:29;75.57;;;33.92;;
26690;SDS011;14307;51.718;8.938;2023-02-15T01:10:56;71.60;;;32.67;;
26690;SDS011;14307;51.718;8.938;2023-02-15T01:13:29;67.07;;;31.75;;
26690;SDS011;14307;51.718;8.938;2023-02-15T01:15:56;73.20;;;34.28;;
26690;SDS011;14307;51.718;8.938;2023-02-15T01:18:24;77.53;;;34.88;;
26690;SDS011;14307;51.718;8.938;2023-02-15T01:20:51;73.60;;;36.47;;
26690;SDS011;14307;51.718;8.938;2023-02-15T01:23:18;72.25;;;33.22;;
26690;SDS011;14307;51.718;8.938;2023-02-15T01:25:45;70.22;;;31.80;;
26690;SDS011;14307;51.718;8.938;2023-02-15T01:28:12;76.63;;;33.78;;
26690;SDS011;14307;51.718;8.938;2023-02-15T01:30:40;67.28;;;30.60;;
26690;SDS011;14307;51.718;8.938;2023-02-15T01:33:07;63.08;;;30.98;;
26690;SDS011;14307;51.718;8.938;2023-02-15T01:35:37;64.82;;;29.85;;
26690;SDS011;14307;51.718;8.938;2023-02-15T01:38:04;68.35;;;33.17;;
26690;SDS011;14307;51.718;8.938;2023-02-15T01:40:30;67.88;;;31.88;;
26690;SDS011;14307;51.718;8.938;2023-02-15T01:42:57;76.70;;;31.40;;
26690;SDS011;14307;51.718;8.938;2023-02-15T01:45:25;71.43;;;31.50;;
26690;SDS011;14307;51.718;8.938;2023-02-15T01:48:05;73.53;;;33.85;;
26690;SDS011;14307;51.718;8.938;2023-02-15T01:50:42;81.40;;;33.15;;
26690;SDS011;14307;51.718;8.938;2023-02-15T01:55:59;83.50;;;32.92;;
26690;SDS011;14307;51.718;8.938;2023-02-15T01:58:30;71.93;;;31.67;;
26690;SDS011;14307;51.718;8.938;2023-02-15T02:01:00;88.90;;;34.75;;
26690;SDS011;14307;51.718;8.938;2023-02-15T02:03:42;92.13;;;33.50;;
26690;SDS011;14307;51.718;8.938;2023-02-15T02:06:17;77.93;;;31.40;;
26690;SDS011;14307;51.718;8.938;2023-02-15T02:08:45;81.97;;;33.25;;
26690;SDS011;14307;51.718;8.938;2023-02-15T02:11:13;92.25;;;35.40;;
26690;SDS011;14307;51.718;8.938;2023-02-15T02:13:44;95.60;;;33.80;;
26690;SDS011;14307;51.718;8.938;2023-02-15T02:19:19;83.32;;;33.15;;
26690;SDS011;14307;51.718;8.938;2023-02-15T02:25:22;83.53;;;34.10;;
26690;SDS011;14307;51.718;8.938;2023-02-15T02:33:20;86.55;;;33.58;;
26690;SDS011;14307;51.718;8.938;2023-02-15T02:43:52;94.05;;;34.28;;
26690;SDS011;14307;51.718;8.938;2023-02-15T02:46:32;88.30;;;35.45;;
26690;SDS011;14307;51.718;8.938;2023-02-15T02:49:28;88.63;;;32.33;;
26690;SDS011;14307;51.718;8.938;2023-02-15T02:52:00;89.47;;;34.05;;
26690;SDS011;14307;51.718;8.938;2023-02-15T02:54:29;83.70;;;33.70;;
26690;SDS011;14307;51.718;8.938;2023-02-15T02:56:58;82.93;;;33.40;;
26690;SDS011;14307;51.718;8.938;2023-02-15T02:59:30;102.68;;;35.97;;
26690;SDS011;14307;51.718;8.938;2023-02-15T03:02:13;84.43;;;33.78;;
26690;SDS011;14307;51.718;8.938;2023-02-15T03:04:53;83.05;;;34.70;;
26690;SDS011;14307;51.718;8.938;2023-02-15T03:07:29;99.13;;;36.00;;
26690;SDS011;14307;51.718;8.938;2023-02-15T03:09:59;113.97;;;39.03;;
26690;SDS011;14307;51.718;8.938;2023-02-15T03:12:31;92.55;;;35.17;;
26690;SDS011;14307;51.718;8.938;2023-02-15T03:15:05;107.32;;;38.55;;
26690;SDS011;14307;51.718;8.938;2023-02-15T03:17:40;87.03;;;35.13;;
26690;SDS011;14307;51.718;8.938;2023-02-15T03:20:16;103.85;;;35.28;;
26690;SDS011;14307;51.718;8.938;2023-02-15T03:22:55;106.63;;;35.03;;
26690;SDS011;14307;51.718;8.938;2023-02-15T03:28:33;103.20;;;35.42;;
26690;SDS011;14307;51.718;8.938;2023-02-15T03:31:04;100.57;;;35.80;;
26690;SDS011;14307;51.718;8.938;2023-02-15T03:33:33;96.53;;;34.50;;
26690;SDS011;14307;51.718;8.938;2023-02-15T03:36:04;90.72;;;33.10;;
26690;SDS011;14307;51.718;8.938;2023-02-15T03:38:53;87.07;;;32.15;;
26690;SDS011;14307;51.718;8.938;2023-02-15T03:41:26;90.97;;;31.85;;
26690;SDS011;14307;51.718;8.938;2023-02-15T03:44:02;98.40;;;33.88;;
26690;SDS011;14307;51.718;8.938;2023-02-15T03:49:24;93.50;;;33.90;;
26690;SDS011;14307;51.718;8.938;2023-02-15T03:51:55;98.30;;;35.10;;
26690;SDS011;14307;51.718;8.938;2023-02-15T03:54:27;90.03;;;31.95;;
26690;SDS011;14307;51.718;8.938;2023-02-15T03:57:24;96.55;;;32.90;;
26690;SDS011;14307;51.718;8.938;2023-02-15T04:05:39;107.18;;;37.17;;
26690;SDS011;14307;51.718;8.938;2023-02-15T04:08:06;115.40;;;36.13;;
26690;SDS011;14307;51.718;8.938;2023-02-15T04:10:34;118.15;;;34.67;;
26690;SDS011;14307;51.718;8.938;2023-02-15T04:13:20;129.93;;;34.63;;
26690;SDS011;14307;51.718;8.938;2023-02-15T04:15:48;113.82;;;36.78;;
26690;SDS011;14307;51.718;8.938;2023-02-15T04:18:35;130.93;;;38.20;;
26690;SDS011;14307;51.718;8.938;2023-02-15T04:21:25;117.57;;;33.83;;
26690;SDS011;14307;51.718;8.938;2023-02-15T04:24:12;99.00;;;33.33;;
26690;SDS011;14307;51.718;8.938;2023-02-15T04:26:58;103.82;;;33.33;;
26690;SDS011;14307;51.718;8.938;2023-02-15T04:29:27;128.63;;;36.65;;
26690;SDS011;14307;51.718;8.938;2023-02-15T04:31:55;146.73;;;39.38;;
26690;SDS011;14307;51.718;8.938;2023-02-15T04:34:23;94.03;;;31.55;;
26690;SDS011;14307;51.718;8.938;2023-02-15T04:36:50;92.20;;;32.83;;
26690;SDS011;14307;51.718;8.938;2023-02-15T04:39:17;200.50;;;42.08;;
26690;SDS011;14307;51.718;8.938;2023-02-15T04:41:44;128.35;;;35.50;;
26690;SDS011;14307;51.718;8.938;2023-02-15T04:44:11;117.22;;;35.67;;
26690;SDS011;14307;51.718;8.938;2023-02-15T04:46:38;108.63;;;34.03;;
26690;SDS011;14307;51.718;8.938;2023-02-15T04:49:05;112.10;;;32.85;;
26690;SDS011;14307;51.718;8.938;2023-02-15T04:51:31;112.88;;;34.92;;
26690;SDS011;14307;51.718;8.938;2023-02-15T04:53:58;117.13;;;34.97;;
26690;SDS011;14307;51.718;8.938;2023-02-15T04:56:25;117.93;;;35.53;;
26690;SDS011;14307;51.718;8.938;2023-02-15T04:58:51;110.45;;;33.17;;
26690;SDS011;14307;51.718;8.938;2023-02-15T05:01:18;102.88;;;34.83;;
26690;SDS011;14307;51.718;8.938;2023-02-15T05:03:45;99.10;;;34.13;;
26690;SDS011;14307;51.718;8.938;2023-02-15T05:06:11;145.90;;;37.60;;
26690;SDS011;14307;51.718;8.938;2023-02-15T05:08:38;116.70;;;37.05;;
26690;SDS011;14307;51.718;8.938;2023-02-15T05:11:05;101.32;;;32.78;;
26690;SDS011;14307;51.718;8.938;2023-02-15T05:13:31;101.53;;;31.83;;
26690;SDS011;14307;51.718;8.938;2023-02-15T05:15:58;92.28;;;32.47;;
26690;SDS011;14307;51.718;8.938;2023-02-15T05:18:25;96.68;;;32.47;;
26690;SDS011;14307;51.718;8.938;2023-02-15T05:20:52;101.05;;;32.95;;
26690;SDS011;14307;51.718;8.938;2023-02-15T05:23:18;108.95;;;34.63;;
26690;SDS011;14307;51.718;8.938;2023-02-15T05:25:46;106.78;;;35.38;;
26690;SDS011;14307;51.718;8.938;2023-02-15T05:28:35;94.15;;;31.80;;
26690;SDS011;14307;51.718;8.938;2023-02-15T05:31:04;94.97;;;31.70;;
26690;SDS011;14307;51.718;8.938;2023-02-15T05:33:33;98.43;;;34.22;;
26690;SDS011;14307;51.718;8.938;2023-02-15T05:36:00;94.10;;;34.38;;
26690;SDS011;14307;51.718;8.938;2023-02-15T05:38:29;81.07;;;30.63;;
26690;SDS011;14307;51.718;8.938;2023-02-15T05:40:56;85.82;;;31.38;;
26690;SDS011;14307;51.718;8.938;2023-02-15T05:43:24;91.95;;;32.05;;
26690;SDS011;14307;51.718;8.938;2023-02-15T05:45:51;95.68;;;34.75;;
26690;SDS011;14307;51.718;8.938;2023-02-15T05:48:20;109.65;;;36.65;;
26690;SDS011;14307;51.718;8.938;2023-02-15T05:51:01;90.55;;;34.85;;
26690;SDS011;14307;51.718;8.938;2023-02-15T05:53:31;96.13;;;33.17;;
26690;SDS011;14307;51.718;8.938;2023-02-15T05:56:00;119.60;;;34.88;;
26690;SDS011;14307;51.718;8.938;2023-02-15T05:58:29;122.78;;;37.53;;
26690;SDS011;14307;51.718;8.938;2023-02-15T06:00:58;116.88;;;35.45;;
26690;SDS011;14307;51.718;8.938;2023-02-15T06:03:25;122.88;;;36.60;;
26690;SDS011;14307;51.718;8.938;2023-02-15T06:05:54;140.05;;;35.70;;
26690;SDS011;14307;51.718;8.938;2023-02-15T06:08:21;117.60;;;36.65;;
26690;SDS011;14307;51.718;8.938;2023-02-15T06:10:47;119.90;;;36.25;;
26690;SDS011;14307;51.718;8.938;2023-02-15T06:13:14;134.93;;;33.78;;
26690;SDS011;14307;51.718;8.938;2023-02-15T06:15:41;121.78;;;33.30;;
26690;SDS011;14307;51.718;8.938;2023-02-15T06:18:07;135.48;;;37.50;;
26690;SDS011;14307;51.718;8.938;2023-02-15T06:20:34;127.75;;;32.35;;
26690;SDS011;14307;51.718;8.938;2023-02-15T06:23:01;110.90;;;35.03;;
26690;SDS011;14307;51.718;8.938;2023-02-15T06:25:28;124.22;;;34.45;;
26690;SDS011;14307;51.718;8.938;2023-02-15T06:27:55;99.88;;;28.60;;
26690;SDS011;14307;51.718;8.938;2023-02-15T06:30:22;114.78;;;31.40;;
26690;SDS011;14307;51.718;8.938;2023-02-15T06:32:49;163.52;;;39.75;;
26690;SDS011;14307;51.718;8.938;2023-02-15T06:35:15;290.08;;;54.17;;
26690;SDS011;14307;51.718;8.938;2023-02-15T06:37:44;125.75;;;36.97;;
26690;SDS011;14307;51.718;8.938;2023-02-15T06:40:12;117.82;;;36.90;;
26690;SDS011;14307;51.718;8.938;2023-02-15T06:42:40;159.27;;;38.38;;
26690;SDS011;14307;51.718;8.938;2023-02-15T06:45:08;136.05;;;36.15;;
26690;SDS011;14307;51.718;8.938;2023-02-15T06:47:36;117.97;;;36.60;;
26690;SDS011;14307;51.718;8.938;2023-02-15T06:50:05;178.82;;;40.72;;
26690;SDS011;14307;51.718;8.938;2023-02-15T06:52:32;143.82;;;38.45;;
26690;SDS011;14307;51.718;8.938;2023-02-15T06:54:59;158.50;;;38.95;;
26690;SDS011;14307;51.718;8.938;2023-02-15T06:57:26;129.48;;;38.92;;
26690;SDS011;14307;51.718;8.938;2023-02-15T06:59:52;163.77;;;40.60;;
26690;SDS011;14307;51.718;8.938;2023-02-15T07:02:19;154.30;;;39.15;;
26690;SDS011;14307;51.718;8.938;2023-02-15T07:04:46;126.47;;;38.25;;
26690;SDS011;14307;51.718;8.938;2023-02-15T07:07:12;149.50;;;39.50;;
26690;SDS011;14307;51.718;8.938;2023-02-15T07:09:39;139.35;;;39.50;;
26690;SDS011;14307;51.718;8.938;2023-02-15T07:12:09;140.73;;;39.08;;
26690;SDS011;14307;51.718;8.938;2023-02-15T07:14:54;154.82;;;40.05;;
26690;SDS011;14307;51.718;8.938;2023-02-15T07:17:21;145.90;;;41.08;;
26690;SDS011;14307;51.718;8.938;2023-02-15T07:20:04;136.65;;;40.35;;
26690;SDS011;14307;51.718;8.938;2023-02-15T07:22:34;216.15;;;48.85;;
26690;SDS011;14307;51.718;8.938;2023-02-15T07:25:05;148.10;;;41.45;;
26690;SDS011;14307;51.718;8.938;2023-02-15T07:27:34;152.35;;;43.88;;
26690;SDS011;14307;51.718;8.938;2023-02-15T07:30:01;275.45;;;56.20;;
26690;SDS011;14307;51.718;8.938;2023-02-15T07:32:29;126.53;;;42.95;;
26690;SDS011;14307;51.718;8.938;2023-02-15T07:34:56;139.48;;;39.90;;
26690;SDS011;14307;51.718;8.938;2023-02-15T07:37:24;124.65;;;36.60;;
26690;SDS011;14307;51.718;8.938;2023-02-15T07:39:51;134.40;;;40.15;;
26690;SDS011;14307;51.718;8.938;2023-02-15T07:42:18;137.00;;;39.30;;
26690;SDS011;14307;51.718;8.938;2023-02-15T07:44:46;106.88;;;35.30;;
26690;SDS011;14307;51.718;8.938;2023-02-15T07:47:12;128.32;;;40.03;;
26690;SDS011;14307;51.718;8.938;2023-02-15T07:49:39;120.95;;;38.97;;
26690;SDS011;14307;51.718;8.938;2023-02-15T07:52:06;131.95;;;40.30;;
26690;SDS011;14307;51.718;8.938;2023-02-15T07:54:33;121.18;;;37.65;;
26690;SDS011;14307;51.718;8.938;2023-02-15T07:57:00;113.82;;;37.40;;
26690;SDS011;14307;51.718;8.938;2023-02-15T07:59:27;121.15;;;38.67;;
26690;SDS011;14307;51.718;8.938;2023-02-15T08:01:53;108.38;;;37.63;;
26690;SDS011;14307;51.718;8.938;2023-02-15T08:04:22;99.75;;;38.90;;
26690;SDS011;14307;51.718;8.938;2023-02-15T08:06:52;96.20;;;35.70;;
26690;SDS011;14307;51.718;8.938;2023-02-15T08:09:20;100.65;;;35.90;;
26690;SDS011;14307;51.718;8.938;2023-02-15T08:11:47;107.60;;;37.70;;
26690;SDS011;14307;51.718;8.938;2023-02-15T08:14:15;92.93;;;34.40;;
26690;SDS011;14307;51.718;8.938;2023-02-15T08:19:20;86.85;;;35.55;;
26690;SDS011;14307;51.718;8.938;2023-02-15T08:21:53;99.75;;;36.35;;
26690;SDS011;14307;51.718;8.938;2023-02-15T08:24:24;80.70;;;31.38;;
26690;SDS011;14307;51.718;8.938;2023-02-15T08:26:52;104.18;;;34.55;;
26690;SDS011;14307;51.718;8.938;2023-02-15T08:29:20;76.10;;;31.77;;
26690;SDS011;14307;51.718;8.938;2023-02-15T08:31:49;81.03;;;34.03;;
26690;SDS011;14307;51.718;8.938;2023-02-15T08:34:21;77.38;;;31.73;;
26690;SDS011;14307;51.718;8.938;2023-02-15T08:36:48;86.90;;;34.00;;
26690;SDS011;14307;51.718;8.938;2023-02-15T08:39:15;71.00;;;32.20;;
26690;SDS011;14307;51.718;8.938;2023-02-15T08:41:45;81.82;;;35.28;;
26690;SDS011;14307;51.718;8.938;2023-02-15T08:44:14;61.58;;;28.65;;
26690;SDS011;14307;51.718;8.938;2023-02-15T08:46:43;46.28;;;23.50;;
26690;SDS011;14307;51.718;8.938;2023-02-15T08:49:12;58.58;;;27.55;;
26690;SDS011;14307;51.718;8.938;2023-02-15T08:51:40;76.30;;;28.88;;
26690;SDS011;14307;51.718;8.938;2023-02-15T08:54:08;61.10;;;27.65;;
26690;SDS011;14307;51.718;8.938;2023-02-15T08:56:39;71.53;;;26.40;;
26690;SDS011;14307;51.718;8.938;2023-02-15T08:59:07;40.30;;;25.45;;
26690;SDS011;14307;51.718;8.938;2023-02-15T09:01:40;42.42;;;25.20;;
26690;SDS011;14307;51.718;8.938;2023-02-15T09:04:07;36.75;;;22.63;;
26690;SDS011;14307;51.718;8.938;2023-02-15T09:06:39;113.55;;;29.92;;
26690;SDS011;14307;51.718;8.938;2023-02-15T09:09:07;35.67;;;22.02;;
26690;SDS011;14307;51.718;8.938;2023-02-15T09:11:35;45.97;;;24.48;;
26690;SDS011;14307;51.718;8.938;2023-02-15T09:14:05;31.90;;;22.75;;
26690;SDS011;14307;51.718;8.938;2023-02-15T09:16:36;39.63;;;23.20;;
26690;SDS011;14307;51.718;8.938;2023-02-15T09:19:04;35.47;;;22.88;;
26690;SDS011;14307;51.718;8.938;2023-02-15T09:21:32;32.72;;;24.23;;
26690;SDS011;14307;51.718;8.938;2023-02-15T09:24:02;32.22;;;24.15;;
26690;SDS011;14307;51.718;8.938;2023-02-15T09:26:31;33.78;;;25.35;;
26690;SDS011;14307;51.718;8.938;2023-02-15T09:29:00;32.28;;;24.83;;
26690;SDS011;14307;51.718;8.938;2023-02-15T09:31:29;33.75;;;25.00;;
26690;SDS011;14307;51.718;8.938;2023-02-15T09:33:58;31.65;;;26.40;;
26690;SDS011;14307;51.718;8.938;2023-02-15T09:36:34;32.67;;;27.02;;
26690;SDS011;14307;51.718;8.938;2023-02-15T09:49:55;32.88;;;26.08;;
26690;SDS011;14307;51.718;8.938;2023-02-15T09:52:33;29.23;;;25.25;;
26690;SDS011;14307;51.718;8.938;2023-02-15T09:55:09;29.30;;;25.95;;
26690;SDS011;14307;51.718;8.938;2023-02-15T09:57:58;28.85;;;25.27;;
26690;SDS011;14307;51.718;8.938;2023-02-15T10:01:10;31.67;;;28.15;;
26690;SDS011;14307;51.718;8.938;2023-02-15T10:04:01;31.70;;;28.38;;
26690;SDS011;14307;51.718;8.938;2023-02-15T10:12:20;33.53;;;30.15;;
26690;SDS011;14307;51.718;8.938;2023-02-15T10:23:57;33.05;;;29.75;;
26690;SDS011;14307;51.718;8.938;2023-02-15T10:26:54;33.80;;;30.52;;
26690;SDS011;14307;51.718;8.938;2023-02-15T10:29:34;32.92;;;29.55;;
26690;SDS011;14307;51.718;8.938;2023-02-15T10:34:50;39.08;;;35.35;;
26690;SDS011;14307;51.718;8.938;2023-02-15T10:40:14;39.05;;;35.15;;
26690;SDS011;14307;51.718;8.938;2023-02-15T10:43:04;36.88;;;33.22;;
26690;SDS011;14307;51.718;8.938;2023-02-15T10:45:53;36.90;;;33.22;;
26690;SDS011;14307;51.718;8.938;2023-02-15T10:48:33;35.50;;;31.90;;
26690;SDS011;14307;51.718;8.938;2023-02-15T10:51:16;39.88;;;35.60;;
26690;SDS011;14307;51.718;8.938;2023-02-15T10:53:56;38.25;;;34.65;;
26690;SDS011;14307;51.718;8.938;2023-02-15T10:56:44;40.80;;;36.88;;
26690;SDS011;14307;51.718;8.938;2023-02-15T10:59:42;37.72;;;34.03;;
26690;SDS011;14307;51.718;8.938;2023-02-15T11:02:34;37.17;;;33.50;;
26690;SDS011;14307;51.718;8.938;2023-02-15T11:08:09;37.97;;;34.50;;
26690;SDS011;14307;51.718;8.938;2023-02-15T11:10:54;37.17;;;33.65;;
26690;SDS011;14307;51.718;8.938;2023-02-15T11:13:26;36.67;;;33.58;;
26690;SDS011;14307;51.718;8.938;2023-02-15T11:16:01;38.03;;;34.55;;
26690;SDS011;14307;51.718;8.938;2023-02-15T11:18:36;39.75;;;35.92;;
26690;SDS011;14307;51.718;8.938;2023-02-15T11:21:21;37.30;;;33.92;;
26690;SDS011;14307;51.718;8.938;2023-02-15T11:23:59;57.72;;;51.55;;
26690;SDS011;14307;51.718;8.938;2023-02-15T11:26:43;38.15;;;34.85;;
26690;SDS011;14307;51.718;8.938;2023-02-15T11:29:28;39.88;;;35.83;;
26690;SDS011;14307;51.718;8.938;2023-02-15T11:31:59;38.88;;;35.47;;
26690;SDS011;14307;51.718;8.938;2023-02-15T11:34:37;40.15;;;36.50;;
26690;SDS011;14307;51.718;8.938;2023-02-15T11:37:16;63.23;;;56.87;;
26690;SDS011;14307;51.718;8.938;2023-02-15T11:39:45;39.72;;;36.08;;
26690;SDS011;14307;51.718;8.938;2023-02-15T11:42:21;44.55;;;40.38;;
26690;SDS011;14307;51.718;8.938;2023-02-15T11:45:02;39.60;;;36.25;;
26690;SDS011;14307;51.718;8.938;2023-02-15T11:47:43;41.00;;;37.45;;
26690;SDS011;14307;51.718;8.938;2023-02-15T11:50:31;41.40;;;37.97;;
26690;SDS011;14307;51.718;8.938;2023-02-15T11:53:02;42.72;;;37.78;;
26690;SDS011;14307;51.718;8.938;2023-02-15T11:55:32;44.75;;;40.65;;
26690;SDS011;14307;51.718;8.938;2023-02-15T11:58:04;68.22;;;52.40;;
26690;SDS011;14307;51.718;8.938;2023-02-15T12:00:37;38.20;;;35.17;;
26690;SDS011;14307;51.718;8.938;2023-02-15T12:03:12;39.38;;;36.20;;
26690;SDS011;14307;51.718;8.938;2023-02-15T12:05:41;40.57;;;37.13;;
26690;SDS011;14307;51.718;8.938;2023-02-15T12:08:15;91.68;;;82.72;;
26690;SDS011;14307;51.718;8.938;2023-02-15T12:11:31;39.17;;;36.08;;
26690;SDS011;14307;51.718;8.938;2023-02-15T12:13:57;37.90;;;34.72;;
26690;SDS011;14307;51.718;8.938;2023-02-15T12:16:26;40.00;;;36.75;;
26690;SDS011;14307;51.718;8.938;2023-02-15T12:18:55;40.03;;;36.45;;
26690;SDS011;14307;51.718;8.938;2023-02-15T12:21:25;40.33;;;36.97;;
26690;SDS011;14307;51.718;8.938;2023-02-15T12:24:00;40.30;;;37.25;;
26690;SDS011;14307;51.718;8.938;2023-02-15T12:26:40;41.42;;;38.13;;
26690;SDS011;14307;51.718;8.938;2023-02-15T12:29:12;40.08;;;37.13;;
26690;SDS011;14307;51.718;8.938;2023-02-15T12:31:46;39.83;;;36.83;;
26690;SDS011;14307;51.718;8.938;2023-02-15T12:36:48;41.65;;;38.55;;
26690;SDS011;14307;51.718;8.938;2023-02-15T12:39:24;261.05;;;176.82;;
26690;SDS011;14307;51.718;8.938;2023-02-15T12:44:21;39.50;;;36.63;;
26690;SDS011;14307;51.718;8.938;2023-02-15T12:47:02;40.63;;;37.67;;
26690;SDS011;14307;51.718;8.938;2023-02-15T12:49:34;41.42;;;38.13;;
26690;SDS011;14307;51.718;8.938;2023-02-15T12:52:05;40.00;;;36.95;;
26690;SDS011;14307;51.718;8.938;2023-02-15T12:54:49;39.20;;;36.30;;
26690;SDS011;14307;51.718;8.938;2023-02-15T13:02:33;40.50;;;37.20;;
26690;SDS011;14307;51.718;8.938;2023-02-15T13:07:39;38.13;;;35.22;;
26690;SDS011;14307;51.718;8.938;2023-02-15T13:10:23;40.70;;;37.25;;
26690;SDS011;14307;51.718;8.938;2023-02-15T13:12:51;46.53;;;42.53;;
26690;SDS011;14307;51.718;8.938;2023-02-15T13:15:24;40.58;;;37.28;;
26690;SDS011;14307;51.718;8.938;2023-02-15T13:18:00;42.17;;;38.95;;
26690;SDS011;14307;51.718;8.938;2023-02-15T13:20:28;42.05;;;38.83;;
26690;SDS011;14307;51.718;8.938;2023-02-15T13:22:58;41.20;;;37.78;;
26690;SDS011;14307;51.718;8.938;2023-02-15T13:25:32;40.47;;;37.38;;
26690;SDS011;14307;51.718;8.938;2023-02-15T13:28:07;40.25;;;37.17;;
26690;SDS011;14307;51.718;8.938;2023-02-15T13:30:42;41.80;;;38.47;;
26690;SDS011;14307;51.718;8.938;2023-02-15T13:38:41;41.92;;;38.30;;
26690;SDS011;14307;51.718;8.938;2023-02-15T13:41:30;42.38;;;38.90;;
26690;SDS011;14307;51.718;8.938;2023-02-15T13:44:09;39.10;;;35.95;;
26690;SDS011;14307;51.718;8.938;2023-02-15T13:47:03;41.43;;;38.20;;
26690;SDS011;14307;51.718;8.938;2023-02-15T13:50:00;40.33;;;36.90;;
26690;SDS011;14307;51.718;8.938;2023-02-15T13:52:30;43.35;;;40.00;;
26690;SDS011;14307;51.718;8.938;2023-02-15T13:58:03;40.60;;;37.35;;
26690;SDS011;14307;51.718;8.938;2023-02-15T14:03:10;41.70;;;38.60;;
26690;SDS011;14307;51.718;8.938;2023-02-15T14:06:03;40.72;;;37.33;;
26690;SDS011;14307;51.718;8.938;2023-02-15T14:11:55;41.40;;;37.92;;
26690;SDS011;14307;51.718;8.938;2023-02-15T14:14:49;41.92;;;38.83;;
26690;SDS011;14307;51.718;8.938;2023-02-15T14:22:54;45.58;;;41.40;;
26690;SDS011;14307;51.718;8.938;2023-02-15T14:25:48;45.80;;;42.03;;
26690;SDS011;14307;51.718;8.938;2023-02-15T14:31:04;42.35;;;39.00;;
26690;SDS011;14307;51.718;8.938;2023-02-15T14:33:39;44.70;;;40.95;;
26690;SDS011;14307;51.718;8.938;2023-02-15T14:36:10;46.80;;;42.88;;
26690;SDS011;14307;51.718;8.938;2023-02-15T14:38:51;44.22;;;40.53;;
26690;SDS011;14307;51.718;8.938;2023-02-15T14:41:22;43.33;;;39.85;;
26690;SDS011;14307;51.718;8.938;2023-02-15T14:44:16;41.25;;;37.95;;
26690;SDS011;14307;51.718;8.938;2023-02-15T14:46:47;44.55;;;40.83;;
26690;SDS011;14307;51.718;8.938;2023-02-15T14:49:48;43.60;;;40.03;;
26690;SDS011;14307;51.718;8.938;2023-02-15T14:52:08;48.28;;;44.13;;
26690;SDS011;14307;51.718;8.938;2023-02-15T14:59:37;45.88;;;42.20;;
26690;SDS011;14307;51.718;8.938;2023-02-15T15:02:13;48.08;;;43.78;;
26690;SDS011;14307;51.718;8.938;2023-02-15T15:04:56;49.95;;;45.72;;
26690;SDS011;14307;51.718;8.938;2023-02-15T15:12:44;44.65;;;41.05;;
26690;SDS011;14307;51.718;8.938;2023-02-15T15:17:58;45.72;;;41.88;;
26690;SDS011;14307;51.718;8.938;2023-02-15T15:20:46;56.95;;;51.95;;
26690;SDS011;14307;51.718;8.938;2023-02-15T15:25:47;45.85;;;42.10;;
26690;SDS011;14307;51.718;8.938;2023-02-15T15:37:08;46.47;;;42.67;;
26690;SDS011;14307;51.718;8.938;2023-02-15T15:40:09;43.80;;;39.72;;
26690;SDS011;14307;51.718;8.938;2023-02-15T15:42:49;42.95;;;38.88;;
26690;SDS011;14307;51.718;8.938;2023-02-15T15:45:41;46.38;;;41.80;;
26690;SDS011;14307;51.718;8.938;2023-02-15T15:51:00;43.75;;;39.90;;
26690;SDS011;14307;51.718;8.938;2023-02-15T15:53:40;83.47;;;59.10;;
26690;SDS011;14307;51.718;8.938;2023-02-15T15:56:12;51.17;;;45.47;;
26690;SDS011;14307;51.718;8.938;2023-02-15T15:58:48;48.70;;;43.88;;
26690;SDS011;14307;51.718;8.938;2023-02-15T16:01:22;285.13;;;201.60;;
26690;SDS011;14307;51.718;8.938;2023-02-15T16:03:55;62.85;;;56.22;;
26690;SDS011;14307;51.718;8.938;2023-02-15T16:06:28;43.58;;;39.25;;
26690;SDS011;14307;51.718;8.938;2023-02-15T16:09:15;42.42;;;38.15;;
26690;SDS011;14307;51.718;8.938;2023-02-15T16:11:51;45.58;;;41.00;;
26690;SDS011;14307;51.718;8.938;2023-02-15T16:16:57;47.17;;;42.85;;
26690;SDS011;14307;51.718;8.938;2023-02-15T16:19:28;76.22;;;69.25;;
26690;SDS011;14307;51.718;8.938;2023-02-15T16:21:59;41.80;;;37.63;;
26690;SDS011;14307;51.718;8.938;2023-02-15T16:24:37;45.53;;;40.83;;
26690;SDS011;14307;51.718;8.938;2023-02-15T16:27:27;44.65;;;39.95;;
26690;SDS011;14307;51.718;8.938;2023-02-15T16:30:16;42.17;;;37.90;;
26690;SDS011;14307;51.718;8.938;2023-02-15T16:32:47;44.20;;;39.55;;
26690;SDS011;14307;51.718;8.938;2023-02-15T16:35:15;45.40;;;40.50;;
26690;SDS011;14307;51.718;8.938;2023-02-15T16:37:44;48.60;;;43.40;;
26690;SDS011;14307;51.718;8.938;2023-02-15T16:42:50;43.15;;;36.72;;
26690;SDS011;14307;51.718;8.938;2023-02-15T16:45:19;69.53;;;54.05;;
26690;SDS011;14307;51.718;8.938;2023-02-15T16:47:50;45.80;;;40.92;;
26690;SDS011;14307;51.718;8.938;2023-02-15T16:50:23;43.58;;;35.85;;
26690;SDS011;14307;51.718;8.938;2023-02-15T16:52:54;46.90;;;40.40;;
26690;SDS011;14307;51.718;8.938;2023-02-15T16:55:24;42.20;;;37.50;;
26690;SDS011;14307;51.718;8.938;2023-02-15T16:57:57;43.95;;;37.03;;
26690;SDS011;14307;51.718;8.938;2023-02-15T17:00:28;51.20;;;42.40;;
26690;SDS011;14307;51.718;8.938;2023-02-15T17:03:00;66.25;;;55.47;;
26690;SDS011;14307;51.718;8.938;2023-02-15T17:05:33;50.35;;;38.25;;
26690;SDS011;14307;51.718;8.938;2023-02-15T17:10:42;48.10;;;36.03;;
26690;SDS011;14307;51.718;8.938;2023-02-15T17:13:27;47.22;;;38.00;;
26690;SDS011;14307;51.718;8.938;2023-02-15T17:18:31;50.85;;;38.05;;